createdAt,value
2022-08-31T00:02:10.403Z,94958.50
2022-08-31T00:04:38.320Z,94960.66
2022-08-31T00:07:06.045Z,94955.75
2022-08-31T00:09:35.210Z,94952.59
2022-08-31T00:12:03.071Z,94961.88
2022-08-31T00:14:30.890Z,94962.84
2022-08-31T00:16:59.067Z,94967.53
2022-08-31T00:19:26.890Z,94970.56
2022-08-31T00:21:54.564Z,94955.38
2022-08-31T00:24:22.351Z,94953.69
2022-08-31T00:26:51.336Z,94958.31
2022-08-31T00:29:18.967Z,94955.84
2022-08-31T00:31:46.758Z,94958.56
2022-08-31T00:34:14.495Z,94956.88
2022-08-31T00:36:42.152Z,94959.84
2022-08-31T00:39:09.799Z,94954.06
2022-08-31T00:41:40.449Z,94958.47
2022-08-31T00:44:11.419Z,94951.66
2022-08-31T00:46:41.183Z,94948.63
2022-08-31T00:49:11.278Z,94949.78
2022-08-31T00:51:41.498Z,94939.59
2022-08-31T00:54:11.564Z,94945.84
2022-08-31T00:56:40.773Z,94949.72
2022-08-31T00:59:09.818Z,94951.94
2022-08-31T01:01:37.587Z,94955.28
2022-08-31T01:04:05.670Z,94952.00
2022-08-31T01:06:33.607Z,94962.22
2022-08-31T01:09:02.745Z,94968.53
2022-08-31T01:11:30.734Z,94963.84
2022-08-31T01:13:58.398Z,94958.56
2022-08-31T01:16:29.612Z,94963.53
2022-08-31T01:18:58.847Z,94956.47
2022-08-31T01:21:28.761Z,94953.22
2022-08-31T01:23:59.341Z,94957.03
2022-08-31T01:26:29.695Z,94955.91
2022-08-31T01:29:01.635Z,94944.63
2022-08-31T01:31:33.716Z,94952.59
2022-08-31T01:34:02.129Z,94951.47
2022-08-31T01:36:29.927Z,94952.59
2022-08-31T01:38:58.980Z,94952.88
2022-08-31T01:41:26.651Z,94946.03
2022-08-31T01:43:54.674Z,94947.13
2022-08-31T01:46:22.841Z,94957.63
2022-08-31T01:48:52.228Z,94957.63
2022-08-31T01:51:21.459Z,94952.41
2022-08-31T01:53:51.074Z,94948.00
2022-08-31T01:56:22.805Z,94945.81
2022-08-31T01:58:50.633Z,94948.28
2022-08-31T02:01:33.634Z,94946.66
2022-08-31T02:04:01.859Z,94940.03
2022-08-31T02:06:29.522Z,94945.53
2022-08-31T02:08:57.315Z,94945.53
2022-08-31T02:11:26.305Z,94952.47
2022-08-31T02:13:53.945Z,94950.81
2022-08-31T02:16:21.699Z,94947.00
2022-08-31T02:18:49.465Z,94957.78
2022-08-31T02:21:17.128Z,94952.91
2022-08-31T02:23:44.817Z,94951.84
2022-08-31T02:26:12.906Z,94950.25
2022-08-31T02:28:42.322Z,94958.56
2022-08-31T02:31:10.006Z,94957.75
2022-08-31T02:33:37.710Z,94957.44
2022-08-31T02:36:05.863Z,94955.75
2022-08-31T02:38:34.276Z,94948.56
2022-08-31T02:41:02.398Z,94949.91
2022-08-31T02:43:30.117Z,94949.31
2022-08-31T02:45:59.164Z,94950.69
2022-08-31T02:48:26.959Z,94952.34
2022-08-31T02:50:54.925Z,94942.72
2022-08-31T02:53:23.926Z,94937.78
2022-08-31T02:55:52.037Z,94949.06
2022-08-31T02:58:23.877Z,94948.56
2022-08-31T03:00:52.261Z,94954.06
2022-08-31T03:03:21.905Z,94948.56
2022-08-31T03:05:49.615Z,94948.56
2022-08-31T03:08:17.268Z,94946.38
2022-08-31T03:10:45.207Z,94945.63
2022-08-31T03:13:12.887Z,94941.53
2022-08-31T03:15:42.207Z,94943.72
2022-08-31T03:18:10.208Z,94946.19
2022-08-31T03:20:39.388Z,94949.22
2022-08-31T03:23:07.107Z,94948.66
2022-08-31T03:25:36.140Z,94944.59
2022-08-31T03:28:07.189Z,94948.84
2022-08-31T03:30:34.898Z,94948.31
2022-08-31T03:33:02.931Z,94938.41
2022-08-31T03:35:30.882Z,94941.94
2022-08-31T03:38:01.050Z,94944.06
2022-08-31T03:40:28.742Z,94948.75
2022-08-31T03:42:57.602Z,94955.88
2022-08-31T03:45:25.374Z,94951.50
2022-08-31T03:47:52.994Z,94961.38
2022-08-31T03:50:20.711Z,94965.25
2022-08-31T03:52:48.425Z,94970.19
2022-08-31T03:55:17.657Z,94969.09
2022-08-31T03:57:45.302Z,94964.69
2022-08-31T04:00:14.029Z,94970.19
2022-08-31T04:05:31.016Z,94979.53
2022-08-31T04:07:58.849Z,94977.06
2022-08-31T04:10:27.852Z,94980.69
2022-08-31T04:12:55.680Z,94986.19
2022-08-31T04:15:24.402Z,94980.69
2022-08-31T04:17:57.119Z,94980.69
2022-08-31T04:20:29.549Z,94973.56
2022-08-31T04:22:57.783Z,94979.56
2022-08-31T04:25:26.771Z,94978.16
2022-08-31T04:27:55.126Z,94979.00
2022-08-31T04:30:26.092Z,94979.53
2022-08-31T04:32:54.312Z,94985.59
2022-08-31T04:35:22.317Z,94982.28
2022-08-31T04:37:49.956Z,94989.47
2022-08-31T04:40:19.773Z,94987.59
2022-08-31T04:42:49.593Z,94994.75
2022-08-31T04:45:17.761Z,94987.88
2022-08-31T04:47:45.426Z,94991.72
2022-08-31T04:50:16.443Z,94991.75
2022-08-31T04:52:45.068Z,94987.63
2022-08-31T04:55:25.109Z,94985.66
2022-08-31T04:57:56.590Z,94994.19
2022-08-31T05:00:24.833Z,94988.69
2022-08-31T05:02:53.363Z,94985.13
2022-08-31T05:05:21.090Z,94986.69
2022-08-31T05:07:48.760Z,94987.78
2022-08-31T05:10:16.539Z,94989.97
2022-08-31T05:12:44.369Z,94992.19
2022-08-31T05:15:13.449Z,94987.03
2022-08-31T05:17:41.019Z,94987.84
2022-08-31T05:20:09.107Z,94978.44
2022-08-31T05:22:36.738Z,94983.63
2022-08-31T05:25:06.952Z,94988.56
2022-08-31T05:27:36.279Z,94986.69
2022-08-31T05:30:05.285Z,94985.03
2022-08-31T05:32:34.393Z,94979.78
2022-08-31T05:35:06.284Z,94980.84
2022-08-31T05:37:34.138Z,94983.28
2022-08-31T05:40:01.923Z,94980.34
2022-08-31T05:42:29.751Z,94981.59
2022-08-31T05:44:57.524Z,94981.38
2022-08-31T05:47:25.310Z,94989.69
2022-08-31T05:49:54.451Z,94991.03
2022-08-31T05:52:24.980Z,94999.25
2022-08-31T05:54:53.072Z,94993.97
2022-08-31T05:57:25.840Z,94997.22
2022-08-31T05:59:54.313Z,94993.34
2022-08-31T06:02:22.125Z,94988.06
2022-08-31T06:04:52.161Z,94999.66
2022-08-31T06:07:21.784Z,94998.25
2022-08-31T06:09:49.534Z,94998.22
2022-08-31T06:12:17.753Z,95000.41
2022-08-31T06:14:47.932Z,94993.50
2022-08-31T06:17:17.916Z,95010.53
2022-08-31T06:19:45.712Z,95010.81
2022-08-31T06:22:13.498Z,95008.94
2022-08-31T06:24:43.126Z,95022.97
2022-08-31T06:27:10.852Z,95027.34
2022-08-31T06:29:38.889Z,95021.31
2022-08-31T06:32:11.024Z,95025.72
2022-08-31T06:34:39.243Z,95027.06
2022-08-31T06:37:07.462Z,95029.53
2022-08-31T06:39:38.727Z,95028.97
2022-08-31T06:42:08.270Z,95030.88
2022-08-31T06:44:36.209Z,95037.44
2022-08-31T06:47:04.175Z,95027.75
2022-08-31T06:49:32.334Z,95031.25
2022-08-31T06:52:00.929Z,95030.94
2022-08-31T06:54:30.476Z,95034.81
2022-08-31T06:56:59.070Z,95035.91
2022-08-31T06:59:29.914Z,95035.84
2022-08-31T07:01:59.018Z,95039.41
2022-08-31T07:04:28.100Z,95042.34
2022-08-31T07:06:56.046Z,95046.69
2022-08-31T07:09:24.008Z,95050.66
2022-08-31T07:11:52.683Z,95052.84
2022-08-31T07:14:22.684Z,95050.31
2022-08-31T07:16:53.328Z,95049.00
2022-08-31T07:19:22.175Z,95048.94
2022-08-31T07:21:52.165Z,95055.31
2022-08-31T07:24:23.973Z,95049.00
2022-08-31T07:26:54.413Z,95044.38
2022-08-31T07:29:24.007Z,95047.38
2022-08-31T07:31:56.201Z,95047.53
2022-08-31T07:34:26.786Z,95049.34
2022-08-31T07:37:12.859Z,95053.97
2022-08-31T07:39:59.246Z,95046.06
2022-08-31T07:42:29.736Z,95053.78
2022-08-31T07:45:00.057Z,95056.25
2022-08-31T07:47:30.906Z,95059.78
2022-08-31T07:50:01.076Z,95056.16
2022-08-31T07:52:31.803Z,95060.31
2022-08-31T07:55:05.039Z,95055.88
2022-08-31T07:57:36.277Z,95070.09
2022-08-31T08:00:09.073Z,95066.19
2022-08-31T08:02:39.885Z,95061.75
2022-08-31T08:05:09.040Z,95060.00
2022-08-31T08:07:37.715Z,95063.00
2022-08-31T08:10:14.486Z,95061.06
2022-08-31T08:12:42.608Z,95067.78
2022-08-31T08:15:11.575Z,95070.66
2022-08-31T08:17:40.679Z,95069.53
2022-08-31T08:20:13.476Z,95071.97
2022-08-31T08:22:54.258Z,95078.34
2022-08-31T08:25:25.915Z,95070.94
2022-08-31T08:27:55.372Z,95070.34
2022-08-31T08:30:23.723Z,95072.00
2022-08-31T08:33:03.999Z,95081.50
2022-08-31T08:35:35.244Z,95090.97
2022-08-31T08:38:07.751Z,95076.59
2022-08-31T08:40:39.602Z,95087.00
2022-08-31T08:43:07.583Z,95084.75
2022-08-31T08:45:36.661Z,95092.69
2022-08-31T08:48:12.801Z,95104.72
2022-08-31T08:50:42.761Z,95102.25
2022-08-31T08:53:13.365Z,95102.47
2022-08-31T08:55:43.462Z,95110.47
2022-08-31T08:58:13.647Z,95108.09
2022-08-31T09:00:46.709Z,95109.63
2022-08-31T09:03:21.726Z,95102.94
2022-08-31T09:06:02.099Z,95108.03
2022-08-31T09:08:59.640Z,95110.56
2022-08-31T09:11:32.344Z,95111.34
2022-08-31T09:14:06.324Z,95117.69
2022-08-31T09:16:40.159Z,95115.16
2022-08-31T09:19:12.660Z,95116.22
2022-08-31T09:21:43.206Z,95116.22
2022-08-31T09:24:13.924Z,95116.16
2022-08-31T09:26:55.439Z,95113.28
2022-08-31T09:29:26.842Z,95103.28
2022-08-31T09:32:06.014Z,95112.56
2022-08-31T09:34:37.729Z,95111.34
2022-08-31T09:37:17.192Z,95124.03
2022-08-31T09:39:49.305Z,95124.97
2022-08-31T09:42:29.171Z,95124.72
2022-08-31T09:45:00.398Z,95117.94
2022-08-31T09:47:48.685Z,95115.53
2022-08-31T09:50:31.611Z,95117.19
2022-08-31T09:53:36.760Z,95112.63
2022-08-31T09:56:15.597Z,95119.28
2022-08-31T09:58:45.594Z,95116.28
2022-08-31T10:01:19.717Z,95121.28
2022-08-31T10:03:47.844Z,95113.13
2022-08-31T10:06:35.597Z,95120.53
2022-08-31T10:09:06.425Z,95111.19
2022-08-31T10:11:35.411Z,95122.72
2022-08-31T10:14:06.250Z,95127.06
2022-08-31T10:16:37.589Z,95122.13
2022-08-31T10:19:07.387Z,95123.09
2022-08-31T10:21:44.161Z,95123.53
2022-08-31T10:24:28.766Z,95121.47
2022-08-31T10:27:05.309Z,95125.25
2022-08-31T10:29:39.878Z,95124.88
2022-08-31T10:32:18.891Z,95120.88
2022-08-31T10:35:06.926Z,95125.81
2022-08-31T10:37:43.646Z,95115.88
2022-08-31T10:40:17.668Z,95130.31
2022-08-31T10:42:50.228Z,95128.38
2022-08-31T10:45:22.342Z,95131.22
2022-08-31T10:47:50.478Z,95125.63
2022-08-31T10:50:27.454Z,95127.84
2022-08-31T10:53:04.034Z,95132.28
2022-08-31T10:55:37.234Z,95132.09
2022-08-31T10:58:09.708Z,95126.50
2022-08-31T11:00:48.863Z,95120.09
2022-08-31T11:03:23.031Z,95138.56
2022-08-31T11:05:55.720Z,95134.19
2022-08-31T11:08:50.090Z,95138.06
2022-08-31T11:11:25.095Z,95129.03
2022-08-31T11:14:15.177Z,95122.72
2022-08-31T11:16:55.125Z,95124.78
2022-08-31T11:19:42.820Z,95129.78
2022-08-31T11:22:28.650Z,95131.06
2022-08-31T11:25:27.005Z,95127.84
2022-08-31T11:27:58.750Z,95132.03
2022-08-31T11:30:29.871Z,95126.63
2022-08-31T11:33:00.277Z,95126.38
2022-08-31T11:36:03.877Z,95123.81
2022-08-31T11:38:48.744Z,95127.63
2022-08-31T11:41:39.607Z,95126.00
2022-08-31T11:44:09.244Z,95131.81
2022-08-31T11:47:02.175Z,95121.06
2022-08-31T11:49:40.500Z,95116.06
2022-08-31T11:52:14.768Z,95123.63
2022-08-31T11:55:10.433Z,95133.38
2022-08-31T11:58:21.131Z,95133.19
2022-08-31T12:00:56.018Z,95128.28
2022-08-31T12:04:03.507Z,95140.72
2022-08-31T12:07:07.810Z,95137.22
2022-08-31T12:10:09.524Z,95148.53
2022-08-31T12:13:18.667Z,95165.94
2022-08-31T12:16:05.050Z,95171.19
2022-08-31T12:18:43.508Z,95175.56
2022-08-31T12:21:36.649Z,95175.19
2022-08-31T12:24:19.010Z,95177.63
2022-08-31T12:27:03.938Z,95185.53
2022-08-31T12:29:34.185Z,95192.50
2022-08-31T12:32:24.038Z,95205.53
2022-08-31T12:34:58.083Z,95212.81
2022-08-31T12:37:27.974Z,95183.50
2022-08-31T12:40:20.162Z,95194.19
2022-08-31T12:42:58.109Z,95197.53
2022-08-31T12:45:39.658Z,95195.63
2022-08-31T12:48:18.378Z,95184.09
2022-08-31T12:50:49.578Z,95168.78
2022-08-31T12:53:42.331Z,95172.59
2022-08-31T12:56:12.964Z,95174.56
2022-08-31T12:58:53.587Z,95177.03
2022-08-31T13:01:25.747Z,95187.44
2022-08-31T13:03:57.751Z,95175.63
2022-08-31T13:06:27.113Z,95173.97
2022-08-31T13:08:55.378Z,95189.88
2022-08-31T13:11:34.970Z,95195.41
2022-08-31T13:14:12.887Z,95189.88
2022-08-31T13:16:42.860Z,95180.81
2022-08-31T13:19:22.801Z,95187.16
2022-08-31T13:21:52.755Z,95187.97
2022-08-31T13:24:28.362Z,95187.94
2022-08-31T13:27:07.847Z,95188.69
2022-08-31T13:29:41.106Z,95181.28
2022-08-31T13:32:09.532Z,95177.69
2022-08-31T13:34:42.000Z,95174.16
2022-08-31T13:37:15.855Z,95165.63
2022-08-31T13:39:46.102Z,95157.91
2022-08-31T13:42:31.940Z,95149.63
2022-08-31T13:45:02.628Z,95156.47
2022-08-31T13:47:32.115Z,95160.28
2022-08-31T13:50:07.240Z,95155.34
2022-08-31T13:52:35.413Z,95150.69
2022-08-31T13:55:06.471Z,95156.19
2022-08-31T13:57:38.276Z,95155.59
2022-08-31T14:00:29.406Z,95163.28
2022-08-31T14:03:01.640Z,95166.03
2022-08-31T14:05:32.238Z,95169.34
2022-08-31T14:08:02.299Z,95166.06
2022-08-31T14:10:35.197Z,95169.34
2022-08-31T14:13:05.043Z,95173.47
2022-08-31T14:15:39.077Z,95174.88
2022-08-31T14:18:26.177Z,95176.22
2022-08-31T14:21:22.723Z,95173.16
2022-08-31T14:23:52.760Z,95172.28
2022-08-31T14:26:22.895Z,95174.72
2022-08-31T14:28:53.296Z,95175.75
2022-08-31T14:31:24.639Z,95174.16
2022-08-31T14:34:08.030Z,95176.38
2022-08-31T14:36:50.322Z,95182.41
2022-08-31T14:39:17.929Z,95179.13
2022-08-31T14:41:46.002Z,95184.16
2022-08-31T14:44:14.314Z,95182.50
2022-08-31T14:46:43.447Z,95181.66
2022-08-31T14:49:11.149Z,95179.72
2022-08-31T14:51:41.901Z,95180.25
2022-08-31T14:54:10.009Z,95172.00
2022-08-31T14:56:46.827Z,95172.28
2022-08-31T14:59:16.752Z,95175.88
2022-08-31T15:01:45.462Z,95169.75
2022-08-31T15:04:14.909Z,95173.63
2022-08-31T15:06:44.546Z,95169.75
2022-08-31T15:09:13.318Z,95169.19
2022-08-31T15:11:41.194Z,95177.19
2022-08-31T15:14:12.446Z,95174.47
2022-08-31T15:16:42.534Z,95173.66
2022-08-31T15:19:13.170Z,95165.91
2022-08-31T15:21:52.699Z,95164.25
2022-08-31T15:24:26.864Z,95167.06
2022-08-31T15:26:58.582Z,95165.72
2022-08-31T15:29:29.004Z,95165.19
2022-08-31T15:31:58.610Z,95169.81
2022-08-31T15:34:29.527Z,95165.91
2022-08-31T15:37:02.129Z,95159.59
2022-08-31T15:39:32.634Z,95154.09
2022-08-31T15:42:01.019Z,95165.91
2022-08-31T15:44:28.738Z,95156.91
2022-08-31T15:47:14.046Z,95153.91
2022-08-31T15:49:43.636Z,95148.44
2022-08-31T15:52:12.884Z,95151.47
2022-08-31T15:54:41.348Z,95148.69
2022-08-31T15:57:11.320Z,95150.88
2022-08-31T15:59:41.213Z,95152.53
2022-08-31T16:02:10.168Z,95146.78
2022-08-31T16:04:42.855Z,95152.88
2022-08-31T16:07:13.758Z,95144.41
2022-08-31T16:09:46.135Z,95151.56
2022-08-31T16:12:14.657Z,95152.94
2022-08-31T16:14:45.210Z,95148.50
2022-08-31T16:17:19.767Z,95154.81
2022-08-31T16:19:47.813Z,95148.47
2022-08-31T16:22:18.227Z,95151.75
2022-08-31T16:24:46.977Z,95152.31
2022-08-31T16:27:17.447Z,95151.78
2022-08-31T16:29:45.885Z,95148.25
2022-08-31T16:32:14.012Z,95143.31
2022-08-31T16:34:42.764Z,95144.13
2022-08-31T16:37:10.617Z,95147.72
2022-08-31T16:39:42.476Z,95133.41
2022-08-31T16:42:12.123Z,95144.13
2022-08-31T16:44:40.603Z,95141.94
2022-08-31T16:47:10.192Z,95156.81
2022-08-31T16:49:38.889Z,95162.59
2022-08-31T16:52:09.963Z,95163.41
2022-08-31T16:54:42.845Z,95157.94
2022-08-31T16:57:10.747Z,95163.72
2022-08-31T16:59:38.479Z,95166.19
2022-08-31T17:02:06.400Z,95165.66
2022-08-31T17:04:51.507Z,95166.75
2022-08-31T17:07:20.936Z,95166.22
2022-08-31T17:09:50.166Z,95165.13
2022-08-31T17:12:24.197Z,95163.47
2022-08-31T17:14:52.820Z,95167.88
2022-08-31T17:17:22.077Z,95157.72
2022-08-31T17:19:52.205Z,95158.81
2022-08-31T17:22:26.955Z,95151.69
2022-08-31T17:24:57.906Z,95164.56
2022-08-31T17:27:26.737Z,95166.22
2022-08-31T17:29:56.205Z,95168.41
2022-08-31T17:32:25.861Z,95165.09
2022-08-31T17:34:54.675Z,95161.78
2022-08-31T17:37:26.969Z,95166.44
2022-08-31T17:39:56.247Z,95164.53
2022-08-31T17:42:27.023Z,95161.78
2022-08-31T17:44:55.698Z,95163.16
2022-08-31T17:47:25.024Z,95163.72
2022-08-31T17:49:54.158Z,95157.16
2022-08-31T17:52:23.216Z,95159.63
2022-08-31T17:54:52.375Z,95167.88
2022-08-31T17:57:25.316Z,95172.03
2022-08-31T17:59:54.958Z,95170.66
2022-08-31T18:02:27.687Z,95167.88
2022-08-31T18:04:55.742Z,95170.94
2022-08-31T18:07:23.555Z,95165.16
2022-08-31T18:09:51.433Z,95173.41
2022-08-31T18:12:22.121Z,95163.81
2022-08-31T18:14:51.432Z,95163.00
2022-08-31T18:17:21.621Z,95163.03
2022-08-31T18:19:49.651Z,95174.03
2022-08-31T18:22:18.298Z,95175.41
2022-08-31T18:24:46.125Z,95179.53
2022-08-31T18:27:16.171Z,95178.44
2022-08-31T18:29:45.023Z,95188.31
2022-08-31T18:32:14.274Z,95182.00
2022-08-31T18:34:44.767Z,95185.56
2022-08-31T18:37:13.447Z,95182.84
2022-08-31T18:39:59.575Z,95190.28
2022-08-31T18:42:46.268Z,95185.28
2022-08-31T18:45:18.746Z,95189.94
2022-08-31T18:50:44.451Z,95192.41
2022-08-31T18:53:15.060Z,95186.09
2022-08-31T18:55:43.811Z,95199.84
2022-08-31T18:58:12.065Z,95203.13
2022-08-31T19:00:40.345Z,95194.88
2022-08-31T19:03:09.771Z,95193.47
2022-08-31T19:05:40.205Z,95189.13
2022-08-31T19:08:08.112Z,95189.94
2022-08-31T19:10:35.951Z,95184.72
2022-08-31T19:13:07.609Z,95184.97
2022-08-31T19:15:39.304Z,95180.28
2022-08-31T19:18:07.702Z,95186.56
2022-08-31T19:20:37.157Z,95194.25
2022-08-31T19:23:05.329Z,95189.31
2022-08-31T19:25:33.079Z,95181.06
2022-08-31T19:28:01.761Z,95183.25
2022-08-31T19:30:30.263Z,95175.03
2022-08-31T19:32:58.093Z,95172.28
2022-08-31T19:35:27.151Z,95176.69
2022-08-31T19:37:56.725Z,95179.69
2022-08-31T19:40:43.041Z,95175.28
2022-08-31T19:46:16.007Z,95183.78
2022-08-31T19:48:44.623Z,95186.81
2022-08-31T19:51:14.471Z,95185.97
2022-08-31T19:53:45.279Z,95187.91
2022-08-31T19:56:17.255Z,95191.22
2022-08-31T19:58:47.037Z,95178.59
2022-08-31T20:01:15.716Z,95180.25
2022-08-31T20:03:43.437Z,95173.94
2022-08-31T20:06:13.382Z,95170.63
2022-08-31T20:08:43.580Z,95176.16
2022-08-31T20:11:13.196Z,95172.59
2022-08-31T20:13:41.308Z,95175.88
2022-08-31T20:16:09.769Z,95176.69
2022-08-31T20:18:38.259Z,95178.31
2022-08-31T20:21:17.537Z,95181.06
2022-08-31T20:23:47.868Z,95188.19
2022-08-31T20:26:15.882Z,95185.19
2022-08-31T20:28:43.636Z,95188.72
2022-08-31T20:31:12.566Z,95193.66
2022-08-31T20:33:40.403Z,95191.75
2022-08-31T20:36:18.973Z,95180.50
2022-08-31T20:38:48.915Z,95181.31
2022-08-31T20:41:16.737Z,95188.72
2022-08-31T20:43:45.149Z,95189.28
2022-08-31T20:46:34.355Z,95189.00
2022-08-31T20:49:19.704Z,95184.66
2022-08-31T20:51:47.519Z,95191.47
2022-08-31T20:54:18.351Z,95183.28
2022-08-31T20:56:46.014Z,95179.19
2022-08-31T20:59:13.663Z,95176.69
2022-08-31T21:01:41.680Z,95174.78
2022-08-31T21:04:09.460Z,95180.78
2022-08-31T21:06:37.233Z,95175.84
2022-08-31T21:09:06.661Z,95181.06
2022-08-31T21:11:40.846Z,95181.88
2022-08-31T21:14:09.570Z,95182.72
2022-08-31T21:16:40.753Z,95180.50
2022-08-31T21:19:11.746Z,95171.75
2022-08-31T21:21:40.511Z,95176.38
2022-08-31T21:24:09.285Z,95167.88
2022-08-31T21:26:40.974Z,95175.56
2022-08-31T21:29:10.685Z,95170.63
2022-08-31T21:31:46.360Z,95171.47
2022-08-31T21:34:18.803Z,95166.50
2022-08-31T21:36:47.448Z,95173.34
2022-08-31T21:39:17.470Z,95159.63
2022-08-31T21:41:47.095Z,95163.75
2022-08-31T21:44:17.048Z,95161.84
2022-08-31T21:46:50.291Z,95163.50
2022-08-31T21:49:19.079Z,95165.13
2022-08-31T21:51:49.735Z,95160.19
2022-08-31T21:54:19.159Z,95159.09
2022-08-31T21:56:50.965Z,95165.13
2022-08-31T21:59:20.210Z,95157.44
2022-08-31T22:01:48.528Z,95157.16
2022-08-31T22:04:19.938Z,95162.91
2022-08-31T22:06:49.684Z,95160.44
2022-08-31T22:09:22.363Z,95168.66
2022-08-31T22:11:54.915Z,95170.84
2022-08-31T22:14:28.705Z,95165.91
2022-08-31T22:16:57.875Z,95167.84
2022-08-31T22:19:28.390Z,95162.38
2022-08-31T22:21:58.974Z,95157.44
2022-08-31T22:24:28.578Z,95152.22
2022-08-31T22:27:00.466Z,95158.53
2022-08-31T22:29:30.909Z,95155.81
2022-08-31T22:32:00.986Z,95158.53
2022-08-31T22:34:28.621Z,95155.25
2022-08-31T22:36:57.081Z,95166.75
2022-08-31T22:39:29.129Z,95162.38
2022-08-31T22:41:59.198Z,95171.97
2022-08-31T22:44:28.975Z,95180.47
2022-08-31T22:46:57.272Z,95178.81
2022-08-31T22:49:25.864Z,95178.81
2022-08-31T22:51:54.204Z,95171.94
2022-08-31T22:54:22.348Z,95179.88
2022-08-31T22:56:50.090Z,95178.78
2022-08-31T22:59:26.125Z,95172.22
2022-08-31T23:01:56.333Z,95176.03
2022-08-31T23:04:26.333Z,95172.19
2022-08-31T23:06:56.235Z,95170.53
2022-08-31T23:09:27.662Z,95168.63
2022-08-31T23:11:56.045Z,95159.84
2022-08-31T23:14:25.477Z,95164.50
2022-08-31T23:16:59.030Z,95160.38
2022-08-31T23:19:30.343Z,95155.72
2022-08-31T23:21:58.877Z,95155.72
2022-08-31T23:24:28.593Z,95145.59
2022-08-31T23:27:01.593Z,95145.59
2022-08-31T23:29:34.549Z,95143.41
2022-08-31T23:32:02.918Z,95141.22
2022-08-31T23:34:30.872Z,95136.84
2022-08-31T23:36:58.550Z,95128.31
2022-08-31T23:39:26.320Z,95136.53
2022-08-31T23:41:53.964Z,95137.09
2022-08-31T23:44:22.433Z,95130.78
2022-08-31T23:46:51.470Z,95127.75
2022-08-31T23:49:20.569Z,95127.75
2022-08-31T23:51:49.885Z,95126.41
2022-08-31T23:54:18.383Z,95118.75
2022-08-31T23:56:49.530Z,95116.28
2022-08-31T23:59:19.620Z,95115.19
